Time;durP1;ratioP1;P1;durP2;ratioP2;P2;SDS_P1;SDS_P2;PMS_P1;PMS_P2;Temp;Humidity;BMP_temperature;BMP_pressure;BME280_temperature;BME280_humidity;BME280_pressure;Samples;Min_cycle;Max_cycle;Signal;HPM_P1;HPM_P2
2022/12/11 00:01:30;;;;;;;14.60;6.40;;;0.40;99.90;;;;;;6184360;23;20430;-56
2022/12/11 00:03:57;;;;;;;7.67;4.27;;;0.40;99.90;;;;;;6184889;23;20386;-53
2022/12/11 00:06:24;;;;;;;11.13;6.27;;;0.40;99.90;;;;;;6182061;23;20452;-50
2022/12/11 00:08:57;;;;;;;10.73;6.13;;;0.40;99.90;;;;;;6184123;23;20385;-54
2022/12/11 00:11:26;;;;;;;7.33;4.80;;;0.40;99.90;;;;;;6184686;23;20389;-54
2022/12/11 00:13:56;;;;;;;9.67;6.53;;;0.40;99.90;;;;;;6183943;23;20413;-52
2022/12/11 00:16:23;;;;;;;9.20;6.13;;;0.40;99.90;;;;;;6184128;23;20561;-49
2022/12/11 00:18:55;;;;;;;11.53;6.80;;;0.40;99.90;;;;;;6184212;23;20417;-48
2022/12/11 00:21:22;;;;;;;10.73;5.33;;;0.40;99.90;;;;;;6183298;23;20405;-56
2022/12/11 00:23:49;;;;;;;13.80;6.83;;;0.40;99.90;;;;;;6177519;23;20432;-51
2022/12/11 00:26:16;;;;;;;10.50;5.60;;;0.40;99.90;;;;;;6183379;23;20394;-52
2022/12/11 00:28:45;;;;;;;6.73;4.83;;;0.40;99.90;;;;;;6183345;23;20413;-50
2022/12/11 00:31:15;;;;;;;17.57;8.10;;;0.50;99.90;;;;;;6183620;23;20426;-54
2022/12/11 00:33:42;;;;;;;7.93;5.57;;;0.50;99.90;;;;;;6183773;23;20401;-48
2022/12/11 00:36:12;;;;;;;13.80;7.03;;;0.50;99.90;;;;;;6175925;23;20429;-53
2022/12/11 00:38:43;;;;;;;5.53;4.20;;;0.50;99.90;;;;;;6175656;23;20438;-51
2022/12/11 00:41:11;;;;;;;9.33;4.53;;;0.50;99.90;;;;;;6183100;23;20421;-50
2022/12/11 00:43:38;;;;;;;11.57;6.17;;;0.50;99.90;;;;;;6183649;23;20401;-52
2022/12/11 00:46:05;;;;;;;13.30;7.03;;;0.50;99.90;;;;;;6183188;23;20430;-58
2022/12/11 00:48:34;;;;;;;13.00;6.13;;;0.50;99.90;;;;;;6183590;23;20402;-51
2022/12/11 00:51:01;;;;;;;13.07;6.10;;;0.60;99.90;;;;;;6183027;23;20433;-53
2022/12/11 00:53:31;;;;;;;11.37;7.00;;;0.60;99.90;;;;;;6183094;23;20409;-53
2022/12/11 00:56:03;;;;;;;6.67;3.97;;;0.60;99.90;;;;;;6182513;23;20406;-51
2022/12/11 00:58:33;;;;;;;8.90;4.23;;;0.60;99.90;;;;;;6182666;23;20440;-50
2022/12/11 01:01:06;;;;;;;5.00;4.17;;;0.60;99.90;;;;;;6176995;23;20402;-51
2022/12/11 01:03:35;;;;;;;10.83;5.50;;;0.60;99.90;;;;;;6183250;23;20523;-54
2022/12/11 01:06:02;;;;;;;13.43;7.53;;;0.70;99.90;;;;;;6183081;23;20402;-51
2022/12/11 01:08:32;;;;;;;11.10;5.17;;;0.60;99.90;;;;;;6178825;23;20447;-48
2022/12/11 01:11:03;;;;;;;8.47;5.03;;;0.60;99.90;;;;;;6182991;23;20433;-50
2022/12/11 01:13:30;;;;;;;8.30;5.27;;;0.60;99.90;;;;;;6183338;23;20469;-47
2022/12/11 01:16:05;;;;;;;13.70;4.53;;;0.60;99.90;;;;;;6183017;23;20453;-55
2022/12/11 01:18:34;;;;;;;10.00;5.43;;;0.60;99.90;;;;;;6177281;23;20389;-52
2022/12/11 01:21:07;;;;;;;6.73;5.70;;;0.60;99.90;;;;;;6182734;23;20405;-57
2022/12/11 01:23:34;;;;;;;11.97;5.30;;;0.60;99.90;;;;;;6182900;23;20402;-55
2022/12/11 01:26:06;;;;;;;15.17;5.50;;;0.60;99.90;;;;;;6182704;23;20426;-53
2022/12/11 01:28:33;;;;;;;10.73;5.40;;;0.60;99.90;;;;;;6181998;23;20836;-54
2022/12/11 01:31:00;;;;;;;9.53;4.60;;;0.60;99.90;;;;;;6182480;23;20446;-48
2022/12/11 01:33:27;;;;;;;10.50;5.43;;;0.60;99.90;;;;;;6181170;23;20432;-48
2022/12/11 01:35:56;;;;;;;10.63;5.00;;;0.60;99.90;;;;;;6182606;23;20402;-54
2022/12/11 01:38:23;;;;;;;8.80;5.43;;;0.60;99.90;;;;;;6182462;23;20433;-55
2022/12/11 01:40:52;;;;;;;7.73;4.73;;;0.70;99.90;;;;;;6173798;23;20417;-55
2022/12/11 01:43:19;;;;;;;7.80;4.83;;;0.70;99.90;;;;;;6182205;23;20425;-49
2022/12/11 01:45:47;;;;;;;8.53;5.63;;;0.70;99.90;;;;;;6182647;23;20382;-51
2022/12/11 01:48:20;;;;;;;10.13;5.07;;;0.70;99.90;;;;;;6182324;23;20445;-51
2022/12/11 01:50:50;;;;;;;12.00;5.90;;;0.70;99.90;;;;;;6171944;23;20444;-54
2022/12/11 01:53:23;;;;;;;5.90;4.47;;;0.70;99.90;;;;;;6182631;23;20405;-47
2022/12/11 01:55:52;;;;;;;8.40;6.90;;;0.60;99.90;;;;;;6182765;23;20397;-58
2022/12/11 01:58:22;;;;;;;7.27;5.10;;;0.60;99.90;;;;;;6182899;23;20406;-54
2022/12/11 02:00:55;;;;;;;13.83;5.27;;;0.60;99.90;;;;;;6177429;23;20441;-50
2022/12/11 02:03:24;;;;;;;6.23;4.77;;;0.60;99.90;;;;;;6182299;23;20425;-54
2022/12/11 02:05:52;;;;;;;6.80;5.57;;;0.60;99.90;;;;;;6180801;23;20460;-52
2022/12/11 02:08:23;;;;;;;8.63;5.00;;;0.60;99.90;;;;;;6176662;23;20425;-54
2022/12/11 02:11:06;;;;;;;9.80;5.33;;;0.50;99.90;;;;;;6181710;23;20469;-57
2022/12/11 02:13:44;;;;;;;10.50;4.90;;;0.50;99.90;;;;;;6182022;23;20432;-55
2022/12/11 02:16:21;;;;;;;8.27;4.80;;;0.50;99.90;;;;;;6180377;23;20438;-49
2022/12/11 02:18:55;;;;;;;17.37;8.23;;;0.50;99.90;;;;;;6182171;23;20386;-51
2022/12/11 02:21:27;;;;;;;12.00;5.67;;;0.40;99.90;;;;;;6180484;23;20381;-54
2022/12/11 02:24:24;;;;;;;10.53;6.40;;;0.40;99.90;;;;;;6182341;23;20398;-52
2022/12/11 02:27:19;;;;;;;19.30;8.30;;;0.50;99.90;;;;;;6158542;23;20433;-49
2022/12/11 02:29:51;;;;;;;15.20;6.60;;;0.40;99.90;;;;;;6163445;23;20402;-47
2022/12/11 02:32:24;;;;;;;12.93;5.70;;;0.40;99.90;;;;;;6182492;23;20390;-51
2022/12/11 02:35:00;;;;;;;10.23;5.33;;;0.40;99.90;;;;;;6181970;23;20386;-54
2022/12/11 02:37:31;;;;;;;12.20;8.10;;;0.40;99.90;;;;;;6177638;23;20382;-53
2022/12/11 02:39:58;;;;;;;13.70;6.83;;;0.40;99.90;;;;;;6175537;23;20427;-56
2022/12/11 02:42:30;;;;;;;9.33;5.37;;;0.40;99.90;;;;;;6182436;23;20430;-50
2022/12/11 02:45:03;;;;;;;8.70;5.50;;;0.40;99.90;;;;;;6181646;23;20444;-53
2022/12/11 02:47:36;;;;;;;13.87;7.13;;;0.40;99.90;;;;;;6181873;23;20395;-53
2022/12/11 02:50:10;;;;;;;12.53;6.63;;;0.40;99.90;;;;;;6175749;23;20460;-51
2022/12/11 02:52:38;;;;;;;7.07;5.40;;;0.40;99.90;;;;;;6181543;23;20417;-54
2022/12/11 02:55:08;;;;;;;16.63;7.93;;;0.50;99.90;;;;;;6182046;23;20398;-53
2022/12/11 02:57:44;;;;;;;20.47;7.27;;;0.40;99.90;;;;;;6182862;23;20413;-48
2022/12/11 03:00:13;;;;;;;10.10;5.17;;;0.50;99.90;;;;;;6178286;23;20676;-56
2022/12/11 03:02:41;;;;;;;9.37;6.97;;;0.40;99.90;;;;;;6181745;23;20394;-54
2022/12/11 03:05:09;;;;;;;6.13;4.93;;;0.40;99.90;;;;;;6178743;23;20434;-51
2022/12/11 03:07:39;;;;;;;14.37;8.07;;;0.40;99.90;;;;;;6180950;23;20927;-55
2022/12/11 03:10:09;;;;;;;15.17;6.80;;;0.40;99.90;;;;;;6182134;23;20473;-52
2022/12/11 03:12:38;;;;;;;9.50;7.03;;;0.40;99.90;;;;;;6181756;23;20727;-55
2022/12/11 03:15:08;;;;;;;7.87;5.20;;;0.50;99.90;;;;;;6181844;23;20410;-56
2022/12/11 03:17:47;;;;;;;13.40;6.03;;;0.40;99.90;;;;;;6182655;23;20426;-52
2022/12/11 03:20:26;;;;;;;10.83;6.20;;;0.40;99.90;;;;;;6174611;23;20382;-57
2022/12/11 03:23:02;;;;;;;10.33;7.20;;;0.40;99.90;;;;;;6181661;23;20394;-54
2022/12/11 03:25:36;;;;;;;11.77;6.37;;;0.40;99.90;;;;;;6182448;23;20389;-54
2022/12/11 03:28:10;;;;;;;8.77;5.70;;;0.40;99.90;;;;;;6182131;23;20425;-50
2022/12/11 03:30:39;;;;;;;12.83;5.60;;;0.40;99.90;;;;;;6182349;23;20479;-54
2022/12/11 03:33:11;;;;;;;10.73;5.80;;;0.40;99.90;;;;;;6182936;23;20394;-56
2022/12/11 03:35:42;;;;;;;14.27;7.70;;;0.40;99.90;;;;;;6182173;23;20426;-58
2022/12/11 03:38:13;;;;;;;10.47;5.90;;;0.40;99.90;;;;;;6182297;23;20417;-52
2022/12/11 03:40:43;;;;;;;7.20;5.63;;;0.40;99.90;;;;;;6182533;23;20433;-55
2022/12/11 03:43:11;;;;;;;9.57;4.50;;;0.40;99.90;;;;;;6182148;23;20393;-49
2022/12/11 03:45:40;;;;;;;9.10;5.77;;;0.40;99.90;;;;;;6176331;23;20402;-55
2022/12/11 03:48:10;;;;;;;14.07;7.40;;;0.40;99.90;;;;;;6181076;23;20398;-48
2022/12/11 03:50:38;;;;;;;11.30;5.77;;;0.40;99.90;;;;;;6181444;23;20414;-52
2022/12/11 03:53:05;;;;;;;10.63;5.50;;;0.50;99.90;;;;;;6181612;23;20425;-58
2022/12/11 03:55:33;;;;;;;10.73;5.90;;;0.50;99.90;;;;;;6181105;23;20385;-50
2022/12/11 03:58:00;;;;;;;11.53;4.60;;;0.50;99.90;;;;;;6181629;23;20430;-56
2022/12/11 04:00:28;;;;;;;13.87;5.90;;;0.50;99.90;;;;;;6181782;23;20410;-53
2022/12/11 04:03:14;;;;;;;9.57;6.00;;;0.50;99.90;;;;;;6181901;23;20398;-56
2022/12/11 04:05:45;;;;;;;12.03;5.20;;;0.50;99.90;;;;;;6178692;23;20409;-53
2022/12/11 04:08:12;;;;;;;16.63;6.20;;;0.40;99.90;;;;;;6181578;23;20381;-53
2022/12/11 04:10:39;;;;;;;10.10;5.67;;;0.40;99.90;;;;;;6180714;23;20437;-55
2022/12/11 04:13:06;;;;;;;9.10;5.43;;;0.30;99.90;;;;;;6181477;23;20396;-50
2022/12/11 04:15:36;;;;;;;8.00;5.23;;;0.30;99.90;;;;;;6180847;23;20449;-54
2022/12/11 04:39:24;;;;;;;10.77;6.70;;;0.20;99.90;;;;;;6150391;23;20464;-49
2022/12/11 04:41:51;;;;;;;12.60;7.90;;;0.20;99.90;;;;;;6181041;23;20382;-51
2022/12/11 04:44:18;;;;;;;14.60;5.90;;;0.10;99.90;;;;;;6180481;23;20413;-50
2022/12/11 04:46:44;;;;;;;10.50;6.10;;;0.10;99.90;;;;;;6181648;23;20412;-48
2022/12/11 04:49:13;;;;;;;9.33;5.50;;;0.20;99.90;;;;;;6181586;23;20425;-55
2022/12/11 04:51:40;;;;;;;12.57;6.40;;;0.20;99.90;;;;;;6181248;23;20422;-49
2022/12/11 04:54:07;;;;;;;14.50;6.77;;;0.20;99.90;;;;;;6181400;23;20433;-49
2022/12/11 04:56:38;;;;;;;12.13;5.90;;;0.20;99.90;;;;;;6182677;23;20369;-47
2022/12/11 04:59:05;;;;;;;17.83;8.17;;;0.20;99.90;;;;;;6180927;23;20401;-52
2022/12/11 05:01:32;;;;;;;9.40;7.17;;;0.30;99.90;;;;;;6181204;23;20429;-52
2022/12/11 05:03:59;;;;;;;14.30;7.43;;;0.30;99.90;;;;;;6181644;23;20390;-54
2022/12/11 05:06:26;;;;;;;10.37;6.60;;;0.30;99.90;;;;;;6181758;23;20433;-44
2022/12/11 05:08:53;;;;;;;19.73;6.20;;;0.30;99.90;;;;;;6182003;23;20406;-51
2022/12/11 05:11:20;;;;;;;16.33;7.53;;;0.30;99.90;;;;;;6182261;23;20449;-51
2022/12/11 05:13:48;;;;;;;14.47;7.53;;;0.30;99.90;;;;;;6182495;23;20398;-50
2022/12/11 05:16:17;;;;;;;11.60;6.13;;;0.30;99.90;;;;;;6181053;23;20389;-50
2022/12/11 05:18:44;;;;;;;17.60;6.80;;;0.30;99.90;;;;;;6181757;23;20382;-51
2022/12/11 05:21:13;;;;;;;12.13;6.33;;;0.30;99.90;;;;;;6181356;23;20783;-56
2022/12/11 05:23:41;;;;;;;10.10;5.43;;;0.20;99.90;;;;;;6181282;23;20406;-50
2022/12/11 05:26:12;;;;;;;12.00;6.93;;;0.20;99.90;;;;;;6181613;23;20409;-55
2022/12/11 05:28:40;;;;;;;9.10;5.00;;;0.30;99.90;;;;;;6181318;23;20425;-53
2022/12/11 05:31:11;;;;;;;13.70;6.50;;;0.20;99.90;;;;;;6180939;23;20449;-49
2022/12/11 05:33:38;;;;;;;9.73;7.07;;;0.20;99.90;;;;;;6180260;23;20441;-47
2022/12/11 05:36:07;;;;;;;13.07;7.67;;;0.20;99.90;;;;;;6180297;23;20406;-52
2022/12/11 05:38:36;;;;;;;15.40;6.03;;;0.20;99.90;;;;;;6180131;23;20413;-55
2022/12/11 05:41:05;;;;;;;13.10;8.70;;;0.20;99.90;;;;;;6179955;23;20486;-53
2022/12/11 05:43:34;;;;;;;10.97;5.53;;;0.30;99.90;;;;;;6180671;23;20389;-51
2022/12/11 05:46:06;;;;;;;13.60;5.80;;;0.30;99.90;;;;;;6180021;23;20461;-55
2022/12/11 05:48:35;;;;;;;20.60;8.13;;;0.30;99.90;;;;;;6182205;23;20397;-52
2022/12/11 05:51:03;;;;;;;9.27;7.33;;;0.30;99.90;;;;;;6183445;23;20453;-51
2022/12/11 05:53:30;;;;;;;13.07;6.67;;;0.30;99.90;;;;;;6183455;23;20397;-53
2022/12/11 05:56:01;;;;;;;17.73;6.20;;;0.30;99.90;;;;;;6183606;23;20429;-53
2022/12/11 05:58:29;;;;;;;12.20;6.53;;;0.30;99.90;;;;;;6182734;23;20412;-54
2022/12/11 06:00:56;;;;;;;18.50;7.00;;;0.30;99.90;;;;;;6182627;23;20392;-53
2022/12/11 06:03:22;;;;;;;13.57;7.47;;;0.30;99.90;;;;;;6182856;23;20401;-54
2022/12/11 06:05:51;;;;;;;14.00;6.80;;;0.30;99.90;;;;;;6182801;23;20382;-53
2022/12/11 06:08:23;;;;;;;14.93;7.23;;;0.30;99.90;;;;;;6183134;23;20443;-53
2022/12/11 06:10:50;;;;;;;14.97;8.20;;;0.30;99.90;;;;;;6182593;23;20471;-50
2022/12/11 06:13:17;;;;;;;14.53;8.57;;;0.30;99.90;;;;;;6183196;23;20441;-51
2022/12/11 06:15:44;;;;;;;15.93;7.70;;;0.30;99.90;;;;;;6183158;23;20402;-56
2022/12/11 06:18:13;;;;;;;13.37;7.33;;;0.30;99.90;;;;;;6183281;23;20437;-54
2022/12/11 06:20:39;;;;;;;11.50;7.60;;;0.30;99.90;;;;;;6182691;23;20447;-47
2022/12/11 06:23:08;;;;;;;15.53;7.93;;;0.30;99.90;;;;;;6182807;23;20417;-50
2022/12/11 06:25:35;;;;;;;11.83;5.93;;;0.30;99.90;;;;;;6182891;23;20421;-52
2022/12/11 06:28:01;;;;;;;9.53;5.60;;;0.30;99.90;;;;;;6183216;23;20406;-50
2022/12/11 06:30:29;;;;;;;13.27;6.87;;;0.30;99.90;;;;;;6182662;23;20422;-49
2022/12/11 06:32:58;;;;;;;9.27;5.37;;;0.30;99.90;;;;;;6182528;23;20442;-54
2022/12/11 06:35:25;;;;;;;11.93;8.23;;;0.30;99.90;;;;;;6182254;23;20442;-49
2022/12/11 06:37:51;;;;;;;11.23;5.90;;;0.40;99.90;;;;;;6179387;23;20421;-49
2022/12/11 06:40:20;;;;;;;9.30;8.20;;;0.30;99.90;;;;;;6180842;23;20406;-52
2022/12/11 06:42:47;;;;;;;9.97;6.67;;;0.30;99.90;;;;;;6182033;23;20466;-57
2022/12/11 06:45:14;;;;;;;9.47;7.00;;;0.20;99.90;;;;;;6182485;23;20415;-60
2022/12/11 06:47:40;;;;;;;10.33;5.23;;;0.20;99.90;;;;;;6182281;23;20398;-63
2022/12/11 06:50:08;;;;;;;8.73;7.10;;;0.30;99.90;;;;;;6183213;23;20449;-56
2022/12/11 06:52:35;;;;;;;15.33;6.83;;;0.30;99.90;;;;;;6181445;23;20414;-48
2022/12/11 06:55:02;;;;;;;7.50;5.80;;;0.20;99.90;;;;;;6182111;23;20436;-56
2022/12/11 06:57:30;;;;;;;17.93;6.00;;;0.20;99.90;;;;;;6181471;23;20386;-50
2022/12/11 06:59:57;;;;;;;9.83;5.03;;;0.20;99.90;;;;;;6182577;23;20433;-48
2022/12/11 07:02:25;;;;;;;8.73;6.90;;;0.20;99.90;;;;;;6182463;23;20366;-46
2022/12/11 07:04:52;;;;;;;13.27;6.20;;;0.10;99.90;;;;;;6182157;23;20401;-54
2022/12/11 07:07:19;;;;;;;5.90;4.37;;;0.10;99.90;;;;;;6181598;23;20417;-49
2022/12/11 07:09:46;;;;;;;7.93;5.47;;;0.00;99.90;;;;;;6181933;23;20402;-53
2022/12/11 07:12:13;;;;;;;8.00;5.83;;;0.00;99.90;;;;;;6182625;23;20496;-49
2022/12/11 07:14:48;;;;;;;11.67;5.50;;;0.00;99.90;;;;;;6181839;23;20436;-51
2022/12/11 07:17:14;;;;;;;9.23;5.50;;;-0.10;99.90;;;;;;6182354;23;20369;-49
2022/12/11 07:19:41;;;;;;;9.60;5.00;;;-0.10;99.90;;;;;;6182547;23;20393;-44
2022/12/11 07:22:08;;;;;;;6.20;4.10;;;-0.10;99.90;;;;;;6181889;23;20404;-48
2022/12/11 07:24:35;;;;;;;7.37;4.67;;;-0.10;99.90;;;;;;6182348;23;20405;-47
2022/12/11 07:27:02;;;;;;;7.23;4.07;;;-0.10;99.90;;;;;;6181671;23;20426;-49
2022/12/11 07:29:29;;;;;;;9.80;5.40;;;-0.10;99.90;;;;;;6180928;23;20457;-57
2022/12/11 07:31:57;;;;;;;6.77;4.30;;;-0.20;99.90;;;;;;6182081;23;20523;-52
2022/12/11 07:34:24;;;;;;;11.03;5.73;;;-0.20;99.90;;;;;;6181314;23;20421;-53
2022/12/11 07:36:54;;;;;;;11.70;4.27;;;-0.20;99.90;;;;;;6181593;23;20413;-46
2022/12/11 07:39:22;;;;;;;12.07;4.20;;;-0.20;99.90;;;;;;6181887;23;20410;-50
2022/12/11 07:41:49;;;;;;;8.83;5.53;;;-0.20;99.90;;;;;;6181964;23;20422;-50
2022/12/11 07:44:19;;;;;;;9.47;5.40;;;-0.20;99.90;;;;;;6181623;23;20401;-55
2022/12/11 07:46:46;;;;;;;7.00;4.43;;;-0.10;99.90;;;;;;6182023;23;20749;-54
2022/12/11 07:49:14;;;;;;;10.30;4.33;;;-0.10;99.90;;;;;;6181872;23;20401;-49
2022/12/11 07:51:43;;;;;;;8.83;4.70;;;-0.20;99.90;;;;;;6181439;23;20450;-51
2022/12/11 07:54:15;;;;;;;5.90;4.47;;;-0.20;99.90;;;;;;6181485;23;20390;-53
2022/12/11 07:56:42;;;;;;;8.57;6.40;;;-0.10;99.90;;;;;;6181537;23;20453;-57
2022/12/11 07:59:11;;;;;;;10.83;5.27;;;-0.20;99.90;;;;;;6182195;23;20393;-53
2022/12/11 08:01:41;;;;;;;7.47;4.90;;;-0.10;99.90;;;;;;6173009;23;20421;-52
2022/12/11 08:04:11;;;;;;;12.30;6.23;;;-0.10;99.90;;;;;;6181391;23;20382;-53
2022/12/11 08:06:40;;;;;;;9.33;5.40;;;-0.10;99.90;;;;;;6180932;23;20417;-50
2022/12/11 08:09:11;;;;;;;6.53;4.63;;;-0.10;99.90;;;;;;6181807;23;20390;-54
2022/12/11 08:11:38;;;;;;;9.23;4.40;;;-0.10;99.90;;;;;;6181302;23;20429;-53
2022/12/11 08:14:07;;;;;;;8.13;4.43;;;-0.10;99.90;;;;;;6181745;23;20385;-51
2022/12/11 08:16:34;;;;;;;8.97;6.87;;;-0.20;99.90;;;;;;6181071;23;20461;-54
2022/12/11 08:19:01;;;;;;;9.70;5.57;;;-0.30;99.90;;;;;;6181450;23;20398;-52
2022/12/11 08:21:28;;;;;;;12.53;4.00;;;-0.30;99.90;;;;;;6182312;23;20398;-50
2022/12/11 08:23:56;;;;;;;8.33;5.50;;;-0.30;99.90;;;;;;6182706;23;20477;-50
2022/12/11 08:26:26;;;;;;;5.67;4.40;;;-0.20;99.90;;;;;;6183164;23;20397;-54
2022/12/11 08:28:53;;;;;;;8.03;5.13;;;-0.20;99.90;;;;;;6183714;23;20393;-54
2022/12/11 08:31:22;;;;;;;7.37;5.50;;;-0.30;99.90;;;;;;6183833;23;20397;-50
2022/12/11 08:33:49;;;;;;;12.20;5.10;;;-0.30;99.90;;;;;;6183684;23;20421;-50
2022/12/11 08:36:20;;;;;;;8.00;4.90;;;-0.30;99.90;;;;;;6183441;23;20413;-57
2022/12/11 08:38:47;;;;;;;4.93;3.23;;;-0.30;99.90;;;;;;6183260;23;20437;-54
2022/12/11 08:43:53;;;;;;;7.50;4.17;;;-0.30;99.90;;;;;;6179067;23;20433;-54
2022/12/11 08:46:22;;;;;;;11.13;4.50;;;0.00;99.90;;;;;;6182894;23;20904;-47
2022/12/11 08:48:49;;;;;;;8.40;5.60;;;-0.10;99.90;;;;;;6182314;23;20436;-48
2022/12/11 08:51:19;;;;;;;7.57;6.30;;;0.00;99.90;;;;;;6182826;23;20419;-53
2022/12/11 08:53:48;;;;;;;7.33;4.03;;;-0.10;99.90;;;;;;6181319;23;20505;-51
2022/12/11 08:56:17;;;;;;;9.93;4.90;;;-0.10;99.90;;;;;;6181779;23;20429;-54
2022/12/11 08:58:47;;;;;;;7.57;4.90;;;-0.10;99.90;;;;;;6183031;23;20425;-52
2022/12/11 09:01:17;;;;;;;6.23;4.70;;;-0.10;99.90;;;;;;6183712;23;20402;-54
2022/12/11 09:03:44;;;;;;;5.80;4.10;;;-0.20;99.90;;;;;;6175573;23;20485;-56
2022/12/11 09:06:17;;;;;;;7.13;5.30;;;-0.20;99.90;;;;;;6175276;23;20402;-50
2022/12/11 09:08:45;;;;;;;9.10;4.57;;;-0.20;99.90;;;;;;6181253;23;20445;-50
2022/12/11 09:11:14;;;;;;;8.00;4.97;;;-0.10;99.90;;;;;;6182028;23;20429;-56
2022/12/11 09:13:41;;;;;;;5.50;3.67;;;-0.10;99.90;;;;;;6182028;23;20446;-53
2022/12/11 09:16:19;;;;;;;10.30;4.80;;;-0.10;99.90;;;;;;6182685;23;20370;-50
2022/12/11 09:18:47;;;;;;;10.07;4.63;;;-0.10;99.90;;;;;;6182064;23;20429;-53
2022/12/11 09:21:16;;;;;;;8.57;4.60;;;-0.10;99.90;;;;;;6178904;23;20401;-53
2022/12/11 09:23:43;;;;;;;8.23;5.33;;;-0.10;99.90;;;;;;6181376;23;20446;-53
2022/12/11 09:26:13;;;;;;;16.43;4.20;;;0.00;99.90;;;;;;6182518;23;20378;-52
2022/12/11 09:28:40;;;;;;;12.40;5.57;;;0.00;99.90;;;;;;6182409;23;20386;-65
2022/12/11 09:31:09;;;;;;;8.80;4.87;;;0.00;99.90;;;;;;6181861;23;20420;-51
2022/12/11 09:33:38;;;;;;;7.63;4.77;;;0.00;99.90;;;;;;6180748;23;20507;-52
2022/12/11 09:36:06;;;;;;;7.83;3.90;;;0.00;99.90;;;;;;6181389;23;20374;-55
2022/12/11 09:38:35;;;;;;;5.13;3.50;;;0.00;99.90;;;;;;6182717;23;20390;-51
2022/12/11 09:41:22;;;;;;;14.13;6.67;;;0.00;99.90;;;;;;6182611;23;20448;-54
2022/12/11 09:43:57;;;;;;;9.47;4.30;;;0.00;99.90;;;;;;6182451;23;20383;-56
2022/12/11 09:46:27;;;;;;;6.03;3.27;;;-0.10;99.90;;;;;;6151620;23;20386;-51
2022/12/11 09:48:57;;;;;;;13.90;6.20;;;-0.10;99.90;;;;;;6152484;23;20418;-53
2022/12/11 09:51:31;;;;;;;5.80;3.97;;;-0.10;99.90;;;;;;6144385;23;20442;-61
2022/12/11 09:54:02;;;;;;;5.77;3.90;;;-0.10;99.90;;;;;;6151791;23;20427;-56
2022/12/11 09:56:34;;;;;;;13.77;5.23;;;0.00;99.90;;;;;;6152350;23;20409;-51
2022/12/11 09:59:07;;;;;;;10.37;5.23;;;0.00;99.90;;;;;;6152078;23;20391;-54
2022/12/11 10:01:41;;;;;;;8.57;4.93;;;0.00;99.90;;;;;;6152054;23;20405;-53
2022/12/11 10:04:26;;;;;;;11.43;3.97;;;0.00;99.90;;;;;;6151612;23;20387;-55
2022/12/11 10:07:02;;;;;;;10.83;5.07;;;0.10;99.90;;;;;;6152113;23;20387;-47
2022/12/11 10:09:38;;;;;;;12.90;5.13;;;0.10;99.90;;;;;;6151775;23;20491;-49
2022/12/11 10:12:16;;;;;;;8.37;5.17;;;0.00;99.90;;;;;;6152001;23;20457;-54
2022/12/11 10:14:55;;;;;;;12.20;6.27;;;0.10;99.90;;;;;;6145845;23;20406;-53
2022/12/11 10:17:28;;;;;;;11.37;4.87;;;0.10;99.90;;;;;;6152263;23;20411;-59
2022/12/11 10:20:00;;;;;;;10.20;5.60;;;0.10;99.90;;;;;;6152322;23;20422;-58
2022/12/11 10:22:32;;;;;;;7.90;4.90;;;0.20;99.90;;;;;;6152452;23;20379;-53
2022/12/11 10:25:02;;;;;;;9.80;4.50;;;0.20;99.90;;;;;;6151643;23;20414;-49
2022/12/11 10:27:31;;;;;;;10.40;5.70;;;0.30;99.90;;;;;;6152127;23;20383;-56
2022/12/11 10:30:05;;;;;;;9.00;5.77;;;0.30;99.90;;;;;;6151666;23;20431;-48
2022/12/11 10:32:43;;;;;;;7.10;5.40;;;0.30;99.90;;;;;;6151114;23;20505;-50
2022/12/11 10:35:22;;;;;;;5.60;4.20;;;0.40;99.90;;;;;;6151854;23;20458;-47
2022/12/11 10:37:49;;;;;;;5.53;3.87;;;0.40;99.90;;;;;;6151754;23;20397;-52
2022/12/11 10:40:17;;;;;;;7.27;5.27;;;0.30;99.90;;;;;;6152323;23;20414;-55
2022/12/11 10:42:52;;;;;;;7.23;4.47;;;0.30;99.90;;;;;;6152065;23;20395;-53
2022/12/11 10:45:19;;;;;;;7.40;4.17;;;0.30;99.90;;;;;;6168495;23;20418;-55
2022/12/11 10:47:46;;;;;;;8.70;4.67;;;0.30;99.90;;;;;;6180656;23;20406;-56
2022/12/11 10:50:25;;;;;;;10.80;4.00;;;0.30;99.90;;;;;;6181026;23;20429;-52
2022/12/11 10:52:53;;;;;;;5.70;4.03;;;0.30;99.90;;;;;;6180864;23;20453;-44
2022/12/11 10:55:22;;;;;;;8.40;4.40;;;0.20;99.90;;;;;;6180884;23;20425;-50
2022/12/11 10:57:56;;;;;;;9.33;4.80;;;0.20;99.90;;;;;;6180132;23;20386;-43
2022/12/11 11:00:31;;;;;;;4.70;2.80;;;0.20;99.90;;;;;;6180323;23;20413;-51
2022/12/11 11:02:59;;;;;;;9.73;5.10;;;0.20;99.90;;;;;;6182290;23;20405;-49
2022/12/11 11:05:33;;;;;;;11.90;4.90;;;0.20;99.90;;;;;;6182321;23;20409;-54
2022/12/11 11:08:10;;;;;;;6.90;3.87;;;0.20;99.90;;;;;;6182540;23;20374;-52
2022/12/11 11:10:37;;;;;;;9.50;5.43;;;0.20;99.90;;;;;;6181343;23;20370;-51
2022/12/11 11:13:04;;;;;;;7.70;4.60;;;0.20;99.90;;;;;;6181098;23;20430;-53
2022/12/11 11:15:31;;;;;;;7.07;5.40;;;0.20;99.90;;;;;;6181178;23;20389;-52
2022/12/11 11:18:10;;;;;;;9.20;5.93;;;0.20;99.90;;;;;;6181347;23;20393;-51
2022/12/11 11:20:47;;;;;;;7.90;5.40;;;0.20;99.90;;;;;;6181052;23;20409;-54
2022/12/11 11:23:16;;;;;;;10.43;4.67;;;0.30;99.90;;;;;;6180531;23;20404;-53
2022/12/11 11:25:51;;;;;;;6.93;4.80;;;0.30;99.90;;;;;;6180457;23;20412;-51
2022/12/11 11:28:21;;;;;;;6.83;4.47;;;0.30;99.90;;;;;;6180227;23;20433;-53
2022/12/11 11:31:05;;;;;;;8.00;4.57;;;0.30;99.90;;;;;;6177069;23;20406;-55
2022/12/11 11:33:34;;;;;;;5.33;3.50;;;0.40;99.90;;;;;;6178679;23;20513;-55
2022/12/11 11:36:05;;;;;;;6.50;4.63;;;0.40;99.90;;;;;;6180684;23;20406;-53
2022/12/11 11:38:38;;;;;;;11.27;5.13;;;0.40;99.90;;;;;;6179243;23;20418;-53
2022/12/11 11:41:16;;;;;;;10.07;6.43;;;0.40;99.90;;;;;;6182008;23;20373;-50
2022/12/11 11:43:46;;;;;;;11.93;4.37;;;0.40;99.90;;;;;;6182209;23;20386;-41
2022/12/11 11:46:17;;;;;;;6.97;4.77;;;0.40;99.90;;;;;;6182942;23;20409;-48
2022/12/11 11:48:51;;;;;;;10.07;6.47;;;0.40;99.90;;;;;;6176408;23;20456;-49
2022/12/11 11:51:26;;;;;;;10.30;4.77;;;0.50;99.90;;;;;;6180088;23;20370;-40
2022/12/11 11:53:56;;;;;;;6.53;5.37;;;0.60;99.90;;;;;;6182444;23;20433;-39
2022/12/11 11:56:26;;;;;;;10.70;5.40;;;0.70;99.90;;;;;;6184614;23;20437;-44
2022/12/11 11:59:07;;;;;;;7.73;4.50;;;0.70;99.90;;;;;;6184195;23;20481;-43
2022/12/11 12:01:34;;;;;;;11.47;4.77;;;0.70;99.90;;;;;;6176392;23;20389;-58
2022/12/11 12:04:04;;;;;;;13.60;6.28;;;1.10;99.90;;;;;;6181095;23;20404;-55
2022/12/11 12:06:41;;;;;;;8.07;4.97;;;2.60;99.90;;;;;;6182576;23;20178;-60
2022/12/11 12:09:20;;;;;;;7.50;5.07;;;2.80;99.90;;;;;;6182751;23;20432;-57
2022/12/11 12:11:53;;;;;;;11.30;4.80;;;2.40;99.90;;;;;;6178629;23;20425;-69
2022/12/11 12:14:24;;;;;;;8.60;4.80;;;2.20;99.90;;;;;;6183378;23;20459;-61
2022/12/11 12:17:00;;;;;;;9.27;4.80;;;1.90;99.90;;;;;;6183290;23;20417;-64
2022/12/11 12:19:52;;;;;;;6.10;4.53;;;1.60;99.90;;;;;;6183119;23;20522;-65
2022/12/11 12:22:48;;;;;;;11.30;5.50;;;1.40;99.90;;;;;;6179732;23;20454;-57
2022/12/11 12:25:24;;;;;;;7.73;5.47;;;1.30;99.90;;;;;;6175362;23;20422;-61
2022/12/11 12:27:57;;;;;;;6.07;3.70;;;1.10;99.90;;;;;;6181558;23;20385;-65
2022/12/11 12:30:29;;;;;;;8.70;5.93;;;1.00;99.90;;;;;;6181837;23;20432;-60
2022/12/11 12:33:13;;;;;;;12.73;5.10;;;1.00;99.90;;;;;;6183786;23;20433;-60
2022/12/11 12:35:47;;;;;;;11.83;5.97;;;1.00;99.90;;;;;;6179673;23;20433;-54
2022/12/11 12:38:21;;;;;;;9.83;6.13;;;1.00;99.90;;;;;;6177390;23;20390;-54
2022/12/11 12:41:12;;;;;;;5.10;4.60;;;0.90;99.90;;;;;;6183573;23;20540;-50
2022/12/11 12:43:52;;;;;;;10.40;5.70;;;0.90;99.90;;;;;;6184513;23;20378;-50
2022/12/11 12:46:29;;;;;;;12.50;5.13;;;0.80;99.90;;;;;;6183870;23;20442;-52
2022/12/11 12:48:58;;;;;;;13.13;5.10;;;0.80;99.90;;;;;;6184562;23;20393;-53
2022/12/11 12:51:29;;;;;;;10.10;5.53;;;0.80;99.90;;;;;;6182868;23;20440;-54
2022/12/11 12:54:00;;;;;;;10.13;5.80;;;0.80;99.90;;;;;;6184167;23;20434;-55
2022/12/11 12:56:29;;;;;;;9.43;4.30;;;0.80;99.90;;;;;;6183651;23;20421;-51
2022/12/11 12:58:56;;;;;;;8.80;4.57;;;0.70;99.90;;;;;;6183642;23;20409;-45
2022/12/11 13:01:25;;;;;;;6.80;4.40;;;0.80;99.90;;;;;;6183415;23;20426;-57
2022/12/11 13:03:56;;;;;;;10.60;5.53;;;0.80;99.90;;;;;;6183836;23;20405;-55
2022/12/11 13:06:33;;;;;;;5.60;3.77;;;0.70;99.90;;;;;;6183245;23;20455;-60
2022/12/11 13:09:13;;;;;;;9.50;4.23;;;0.80;99.90;;;;;;6183630;23;20374;-56
2022/12/11 13:11:40;;;;;;;11.00;4.87;;;0.80;99.90;;;;;;6183399;23;20423;-65
2022/12/11 13:14:22;;;;;;;13.20;5.47;;;0.80;99.90;;;;;;6183659;23;20445;-52
2022/12/11 13:16:50;;;;;;;9.30;4.90;;;0.80;99.90;;;;;;6183720;23;20405;-53
2022/12/11 13:19:28;;;;;;;10.00;5.07;;;0.80;99.90;;;;;;6183829;23;20425;-52
2022/12/11 13:21:56;;;;;;;6.87;4.80;;;0.80;99.90;;;;;;6178745;23;20386;-58
2022/12/11 13:24:31;;;;;;;9.43;5.30;;;0.90;99.90;;;;;;6183955;23;20461;-55
2022/12/11 13:27:09;;;;;;;8.77;6.47;;;0.80;99.90;;;;;;6184390;23;20373;-52
2022/12/11 13:29:38;;;;;;;7.87;4.47;;;0.80;99.90;;;;;;6184275;23;20433;-50
2022/12/11 13:32:23;;;;;;;9.37;4.43;;;0.80;99.90;;;;;;6184261;23;20402;-58